createdAt,value
2022-10-13T00:00:06.897Z,93.80
2022-10-13T00:02:33.421Z,93.15
2022-10-13T00:04:59.862Z,93.56
2022-10-13T00:07:26.359Z,94.09
2022-10-13T00:09:52.830Z,94.22
2022-10-13T00:12:19.711Z,93.58
2022-10-13T00:14:46.405Z,93.74
2022-10-13T00:17:12.866Z,94.13
2022-10-13T00:19:39.327Z,94.81
2022-10-13T00:22:05.744Z,93.70
2022-10-13T00:24:32.197Z,94.03
2022-10-13T00:26:58.671Z,93.63
2022-10-13T00:29:25.217Z,94.34
2022-10-13T00:31:51.635Z,95.78
2022-10-13T00:34:18.151Z,95.62
2022-10-13T00:36:44.609Z,95.15
2022-10-13T00:39:11.035Z,94.69
2022-10-13T00:41:37.530Z,94.28
2022-10-13T00:44:07.198Z,93.96
2022-10-13T00:46:35.947Z,93.42
2022-10-13T00:49:08.033Z,92.63
2022-10-13T00:51:40.615Z,93.49
2022-10-13T00:54:11.451Z,93.58
2022-10-13T00:56:38.885Z,93.53
2022-10-13T00:59:13.686Z,92.78
2022-10-13T01:01:40.271Z,93.03
2022-10-13T01:04:06.801Z,91.68
2022-10-13T01:06:34.064Z,93.01
2022-10-13T01:09:00.514Z,93.69
2022-10-13T01:11:48.139Z,94.01
2022-10-13T01:14:49.359Z,93.79
2022-10-13T01:17:25.402Z,92.95
2022-10-13T01:20:10.889Z,93.32
2022-10-13T01:22:49.540Z,94.54
2022-10-13T01:25:24.545Z,95.22
2022-10-13T01:28:04.313Z,95.83
2022-10-13T01:30:37.720Z,96.00
2022-10-13T01:33:34.033Z,95.78
2022-10-13T01:36:18.852Z,96.56
2022-10-13T01:38:55.195Z,97.70
2022-10-13T01:41:37.553Z,98.28
2022-10-13T01:44:43.231Z,98.70
2022-10-13T01:47:12.098Z,98.57
2022-10-13T01:49:39.175Z,97.44
2022-10-13T01:52:11.205Z,97.94
2022-10-13T01:54:37.713Z,97.68
2022-10-13T01:57:04.300Z,97.16
2022-10-13T01:59:36.293Z,96.47
2022-10-13T02:02:25.214Z,95.29
2022-10-13T02:04:56.348Z,95.18
2022-10-13T02:08:09.002Z,95.66
2022-10-13T02:10:41.368Z,95.84
2022-10-13T02:13:11.744Z,94.84
2022-10-13T02:15:42.646Z,94.78
2022-10-13T02:18:12.952Z,95.88
2022-10-13T02:20:42.412Z,96.24
2022-10-13T02:23:13.527Z,96.32
2022-10-13T02:25:41.368Z,96.31
2022-10-13T02:28:09.253Z,97.22
2022-10-13T02:30:35.965Z,96.78
2022-10-13T02:33:03.076Z,97.36
2022-10-13T02:35:29.990Z,97.13
2022-10-13T02:37:56.849Z,96.84
2022-10-13T02:40:23.292Z,96.82
2022-10-13T02:42:49.782Z,97.68
2022-10-13T02:45:16.559Z,98.00
2022-10-13T02:47:43.044Z,98.59
2022-10-13T02:50:09.708Z,98.20
2022-10-13T02:52:36.346Z,98.43
2022-10-13T02:55:03.017Z,98.90
2022-10-13T02:57:29.535Z,98.66
2022-10-13T02:59:56.008Z,97.37
2022-10-13T03:02:23.280Z,97.19
2022-10-13T03:04:50.804Z,97.66
2022-10-13T03:07:17.353Z,97.63
2022-10-13T03:09:43.982Z,97.42
2022-10-13T03:12:10.607Z,97.04
2022-10-13T03:14:37.330Z,97.86
2022-10-13T03:17:03.826Z,97.42
2022-10-13T03:19:30.618Z,97.29
2022-10-13T03:21:57.047Z,98.30
2022-10-13T03:24:23.582Z,99.02
2022-10-13T03:26:50.027Z,99.15
2022-10-13T03:29:20.782Z,99.11
2022-10-13T03:31:47.227Z,98.84
2022-10-13T03:34:16.346Z,99.03
2022-10-13T03:36:42.908Z,98.71
2022-10-13T03:39:09.454Z,98.23
2022-10-13T03:41:35.910Z,98.62
2022-10-13T03:44:02.475Z,98.70
2022-10-13T03:46:30.438Z,98.87
2022-10-13T03:48:57.194Z,99.65
2022-10-13T03:51:23.863Z,100.00
2022-10-13T03:53:52.075Z,100.00
2022-10-13T03:56:24.399Z,100.00
2022-10-13T03:58:54.531Z,100.00
2022-10-13T04:01:23.133Z,100.00
2022-10-13T04:03:51.919Z,99.64
2022-10-13T04:06:18.392Z,98.99
2022-10-13T04:08:44.899Z,98.59
2022-10-13T04:11:14.305Z,98.30
2022-10-13T04:13:42.162Z,97.84
2022-10-13T04:16:14.643Z,97.98
2022-10-13T04:18:44.630Z,98.54
2022-10-13T04:21:14.593Z,98.10
2022-10-13T04:23:41.162Z,97.48
2022-10-13T04:26:14.117Z,97.14
2022-10-13T04:28:40.674Z,97.49
2022-10-13T04:31:07.310Z,97.80
2022-10-13T04:33:33.889Z,98.10
2022-10-13T04:36:04.248Z,98.89
2022-10-13T04:38:30.731Z,99.75
2022-10-13T04:40:57.185Z,100.00
2022-10-13T04:43:23.642Z,100.00
2022-10-13T04:45:50.082Z,100.00
2022-10-13T04:48:16.613Z,100.00
2022-10-13T04:50:43.056Z,100.00
2022-10-13T04:53:09.530Z,99.89
2022-10-13T04:55:37.166Z,100.00
2022-10-13T04:58:03.657Z,100.00
2022-10-13T05:00:30.230Z,100.00
2022-10-13T05:02:56.713Z,100.00
2022-10-13T05:05:23.170Z,100.00
2022-10-13T05:07:49.820Z,100.00
2022-10-13T05:10:16.350Z,100.00
2022-10-13T05:12:42.805Z,100.00
2022-10-13T05:15:09.783Z,100.00
2022-10-13T05:17:36.336Z,100.00
2022-10-13T05:20:03.192Z,100.00
2022-10-13T05:22:29.786Z,100.00
2022-10-13T05:24:56.274Z,100.00
2022-10-13T05:27:23.280Z,100.00
2022-10-13T05:29:49.723Z,100.00
2022-10-13T05:32:16.305Z,100.00
2022-10-13T05:34:42.904Z,100.00
2022-10-13T05:37:09.351Z,100.00
2022-10-13T05:39:35.877Z,100.00
2022-10-13T05:42:02.349Z,100.00
2022-10-13T05:44:28.903Z,100.00
2022-10-13T05:46:56.332Z,100.00
2022-10-13T05:49:22.881Z,100.00
2022-10-13T05:51:53.386Z,100.00
2022-10-13T05:54:24.681Z,100.00
2022-10-13T05:56:56.643Z,100.00
2022-10-13T05:59:27.311Z,100.00
2022-10-13T06:01:54.499Z,100.00
2022-10-13T06:04:25.675Z,100.00
2022-10-13T06:06:52.737Z,100.00
2022-10-13T06:09:19.460Z,99.82
2022-10-13T06:11:46.333Z,100.00
2022-10-13T06:14:12.823Z,100.00
2022-10-13T06:16:39.534Z,100.00
2022-10-13T06:19:06.320Z,100.00
2022-10-13T06:21:35.656Z,100.00
2022-10-13T06:24:02.500Z,100.00
2022-10-13T06:26:28.916Z,99.73
2022-10-13T06:28:59.259Z,99.36
2022-10-13T06:31:26.151Z,99.77
2022-10-13T06:33:52.618Z,99.32
2022-10-13T06:36:19.159Z,98.90
2022-10-13T06:38:45.811Z,98.55
2022-10-13T06:41:14.199Z,98.75
2022-10-13T06:43:41.201Z,98.79
2022-10-13T06:46:08.327Z,98.72
2022-10-13T06:48:34.880Z,99.49
2022-10-13T06:51:02.906Z,99.58
2022-10-13T06:53:29.522Z,99.68
2022-10-13T06:55:58.278Z,97.27
2022-10-13T06:58:24.906Z,96.58
2022-10-13T07:00:51.616Z,96.56
2022-10-13T07:03:18.133Z,96.34
2022-10-13T07:05:44.573Z,95.90
2022-10-13T07:08:11.014Z,96.44
2022-10-13T07:10:38.858Z,96.81
2022-10-13T07:13:05.353Z,96.21
2022-10-13T07:15:31.859Z,95.55
2022-10-13T07:17:58.534Z,96.24
2022-10-13T07:20:25.497Z,95.89
2022-10-13T07:22:55.129Z,95.09
2022-10-13T07:25:21.593Z,94.24
2022-10-13T07:27:48.042Z,93.57
2022-10-13T07:30:14.620Z,93.49
2022-10-13T07:32:42.220Z,93.59
2022-10-13T07:35:10.439Z,92.77
2022-10-13T07:37:37.565Z,91.63
2022-10-13T07:40:06.004Z,91.47
2022-10-13T07:42:32.924Z,90.99
2022-10-13T07:44:59.498Z,90.35
2022-10-13T07:47:26.058Z,89.93
2022-10-13T07:49:54.601Z,89.86
2022-10-13T07:52:21.753Z,88.70
2022-10-13T07:54:48.534Z,87.72
2022-10-13T07:57:15.334Z,87.27
2022-10-13T07:59:41.785Z,87.52
2022-10-13T08:02:09.926Z,87.60
2022-10-13T08:04:36.429Z,88.68
2022-10-13T08:07:05.543Z,88.94
2022-10-13T08:09:32.357Z,88.20
2022-10-13T08:12:00.774Z,87.85
2022-10-13T08:14:29.041Z,87.84
2022-10-13T08:16:56.016Z,87.35
2022-10-13T08:19:22.631Z,88.20
2022-10-13T08:21:58.108Z,88.33
2022-10-13T08:24:26.340Z,88.40
2022-10-13T08:26:52.813Z,88.76
2022-10-13T08:29:23.744Z,86.86
2022-10-13T08:31:52.204Z,86.51
2022-10-13T08:34:29.159Z,86.56
2022-10-13T08:36:56.676Z,85.25
2022-10-13T08:39:24.336Z,85.67
2022-10-13T08:41:51.002Z,85.81
2022-10-13T08:47:30.013Z,83.89
2022-10-13T08:50:00.773Z,84.60
2022-10-13T08:52:42.152Z,85.81
2022-10-13T08:55:17.985Z,83.83
2022-10-13T08:57:44.648Z,83.72
2022-10-13T09:00:13.298Z,82.98
2022-10-13T09:02:42.993Z,81.14
2022-10-13T09:05:17.468Z,79.37
2022-10-13T09:07:45.967Z,77.91
2022-10-13T09:10:15.430Z,76.48
2022-10-13T09:12:42.008Z,76.31
2022-10-13T09:15:11.372Z,77.18
2022-10-13T09:17:40.719Z,76.43
2022-10-13T09:20:19.859Z,75.92
2022-10-13T09:23:04.258Z,75.49
2022-10-13T09:25:43.282Z,76.94
2022-10-13T09:28:17.165Z,77.04
2022-10-13T09:30:46.865Z,77.03
2022-10-13T09:33:13.427Z,77.04
2022-10-13T09:35:44.920Z,75.88
2022-10-13T09:38:20.754Z,76.29
2022-10-13T09:41:04.707Z,76.60
2022-10-13T09:43:47.559Z,77.43
2022-10-13T09:46:24.261Z,76.81
2022-10-13T09:48:53.667Z,76.45
2022-10-13T09:51:34.671Z,75.93
2022-10-13T09:54:01.701Z,76.20
2022-10-13T09:56:43.510Z,74.76
2022-10-13T09:59:39.026Z,73.62
2022-10-13T10:02:31.764Z,74.02
2022-10-13T10:05:05.585Z,72.81
2022-10-13T10:07:33.076Z,72.25
2022-10-13T10:10:15.990Z,70.57
2022-10-13T10:12:44.324Z,71.51
2022-10-13T10:15:23.421Z,71.79
2022-10-13T10:17:58.665Z,70.06
2022-10-13T10:20:46.213Z,68.47
2022-10-13T10:23:36.987Z,67.81
2022-10-13T10:26:20.740Z,67.44
2022-10-13T10:29:08.670Z,67.40
2022-10-13T10:31:55.600Z,65.82
2022-10-13T10:34:37.076Z,66.68
2022-10-13T10:37:36.421Z,65.84
2022-10-13T10:40:03.511Z,66.68
2022-10-13T10:42:35.957Z,67.12
2022-10-13T10:45:12.934Z,64.87
2022-10-13T10:47:45.911Z,64.69
2022-10-13T10:50:18.559Z,64.50
2022-10-13T10:52:47.784Z,65.73
2022-10-13T10:55:19.361Z,67.24
2022-10-13T10:57:51.500Z,66.37
2022-10-13T11:00:22.316Z,65.85
2022-10-13T11:03:06.420Z,67.13
2022-10-13T11:05:57.718Z,65.88
2022-10-13T11:08:42.436Z,65.69
2022-10-13T11:11:29.242Z,64.47
2022-10-13T11:14:00.501Z,64.39
2022-10-13T11:16:36.049Z,63.79
2022-10-13T11:19:08.503Z,65.10
2022-10-13T11:21:59.134Z,66.67
2022-10-13T11:24:50.896Z,66.61
2022-10-13T11:27:41.621Z,65.48
2022-10-13T11:30:41.499Z,64.21
2022-10-13T11:33:32.820Z,64.14
2022-10-13T11:36:39.555Z,63.46
2022-10-13T11:39:27.849Z,64.31
2022-10-13T11:42:17.036Z,64.19
2022-10-13T11:45:06.649Z,62.42
2022-10-13T11:48:04.230Z,63.90
2022-10-13T11:51:08.820Z,64.07
2022-10-13T11:54:21.574Z,63.89
2022-10-13T11:56:56.858Z,63.59
2022-10-13T11:59:37.661Z,63.10
2022-10-13T12:02:25.009Z,62.02
2022-10-13T12:05:05.212Z,62.46
2022-10-13T12:07:37.424Z,63.19
2022-10-13T12:10:07.374Z,60.81
2022-10-13T12:12:34.098Z,61.61
2022-10-13T12:15:04.152Z,62.82
2022-10-13T12:17:41.219Z,62.95
2022-10-13T12:20:23.292Z,63.25
2022-10-13T12:22:51.309Z,62.87
2022-10-13T12:25:30.019Z,63.50
2022-10-13T12:27:59.678Z,63.54
2022-10-13T12:30:32.149Z,64.80
2022-10-13T12:33:00.742Z,63.38
2022-10-13T12:35:30.026Z,63.68
2022-10-13T12:37:58.080Z,65.73
2022-10-13T12:40:25.299Z,65.07
2022-10-13T12:42:52.096Z,64.53
2022-10-13T12:45:21.788Z,64.83
2022-10-13T12:47:51.853Z,66.43
2022-10-13T12:50:30.183Z,65.65
2022-10-13T12:53:24.184Z,65.68
2022-10-13T12:55:53.433Z,65.16
2022-10-13T12:58:30.226Z,65.10
2022-10-13T13:01:03.509Z,64.83
2022-10-13T13:03:30.548Z,66.58
2022-10-13T13:06:10.761Z,65.34
2022-10-13T13:08:39.945Z,65.61
2022-10-13T13:11:18.490Z,65.08
2022-10-13T13:13:45.066Z,64.38
2022-10-13T13:16:20.553Z,64.06
2022-10-13T13:18:49.382Z,63.39
2022-10-13T13:21:18.289Z,63.29
2022-10-13T13:23:51.222Z,63.60
2022-10-13T13:26:22.448Z,64.61
2022-10-13T13:28:51.661Z,65.68
2022-10-13T13:31:19.773Z,66.07
2022-10-13T13:33:47.069Z,65.42
2022-10-13T13:36:17.118Z,66.78
2022-10-13T13:38:44.117Z,66.43
2022-10-13T13:41:11.767Z,64.84
2022-10-13T13:43:39.135Z,66.81
2022-10-13T13:46:07.359Z,64.69
2022-10-13T13:48:34.010Z,65.85
2022-10-13T13:51:00.570Z,66.71
2022-10-13T13:53:27.022Z,66.28
2022-10-13T13:55:53.542Z,65.08
2022-10-13T13:58:20.754Z,65.90
2022-10-13T14:00:47.534Z,66.26
2022-10-13T14:03:19.161Z,66.57
2022-10-13T14:05:45.869Z,66.81
2022-10-13T14:08:12.335Z,67.65
2022-10-13T14:10:41.788Z,67.96
2022-10-13T14:13:08.252Z,68.55
2022-10-13T14:15:34.793Z,68.61
2022-10-13T14:18:01.255Z,69.15
2022-10-13T14:20:27.762Z,69.18
2022-10-13T14:22:54.268Z,69.56
2022-10-13T14:25:20.746Z,69.52
2022-10-13T14:27:47.188Z,69.55
2022-10-13T14:30:14.355Z,70.27
2022-10-13T14:32:40.906Z,69.81
2022-10-13T14:35:07.849Z,69.77
2022-10-13T14:37:34.737Z,69.56
2022-10-13T14:40:01.917Z,70.03
2022-10-13T14:42:28.408Z,69.77
2022-10-13T14:44:55.018Z,70.42
2022-10-13T14:47:21.948Z,70.26
2022-10-13T14:49:48.636Z,71.15
2022-10-13T14:52:15.054Z,71.50
2022-10-13T14:54:44.876Z,71.96
2022-10-13T14:57:15.691Z,72.76
2022-10-13T14:59:43.592Z,72.84
2022-10-13T15:02:13.831Z,73.44
2022-10-13T15:04:40.299Z,74.09
2022-10-13T15:07:06.765Z,74.92
2022-10-13T15:09:45.278Z,74.83
2022-10-13T15:12:20.168Z,75.86
2022-10-13T15:14:46.732Z,76.12
2022-10-13T15:17:13.247Z,76.83
2022-10-13T15:19:39.654Z,77.29
2022-10-13T15:22:06.292Z,77.36
2022-10-13T15:24:32.730Z,76.96
2022-10-13T15:26:59.158Z,77.44
2022-10-13T15:29:25.686Z,77.47
2022-10-13T15:31:52.147Z,77.99
2022-10-13T15:34:18.567Z,77.96
2022-10-13T15:36:45.247Z,78.68
2022-10-13T15:39:11.743Z,79.27
2022-10-13T15:41:38.172Z,80.30
2022-10-13T15:44:04.669Z,80.16
2022-10-13T15:46:31.570Z,79.50
2022-10-13T15:48:59.884Z,79.21
2022-10-13T15:51:27.093Z,79.33
2022-10-13T15:53:55.131Z,79.72
2022-10-13T15:56:21.574Z,80.00
2022-10-13T15:58:48.030Z,80.46
2022-10-13T16:01:14.916Z,79.82
2022-10-13T16:03:42.004Z,80.01
2022-10-13T16:06:10.740Z,80.28
2022-10-13T16:08:39.551Z,79.97
2022-10-13T16:11:15.787Z,80.56
2022-10-13T16:13:46.395Z,80.82
2022-10-13T16:16:12.972Z,81.22
2022-10-13T16:18:40.482Z,81.28
2022-10-13T16:21:15.795Z,80.48
2022-10-13T16:23:45.065Z,80.15
2022-10-13T16:26:11.619Z,80.21
2022-10-13T16:28:38.690Z,80.20
2022-10-13T16:31:13.946Z,81.72
2022-10-13T16:33:41.469Z,83.79
2022-10-13T16:36:11.051Z,84.17
2022-10-13T16:38:37.905Z,85.30
2022-10-13T16:41:09.885Z,87.48
2022-10-13T16:43:36.402Z,87.86
2022-10-13T16:46:04.805Z,88.14
2022-10-13T16:48:32.279Z,88.02
2022-10-13T16:51:00.779Z,88.67
2022-10-13T16:53:27.215Z,88.94
2022-10-13T16:55:53.692Z,88.63
2022-10-13T16:58:20.129Z,89.01
2022-10-13T17:00:46.808Z,89.14
2022-10-13T17:03:13.363Z,89.20
2022-10-13T17:05:39.796Z,89.73
2022-10-13T17:08:06.356Z,89.26
2022-10-13T17:10:34.558Z,89.97
2022-10-13T17:13:01.513Z,90.74
2022-10-13T17:15:27.989Z,90.33
2022-10-13T17:17:54.518Z,90.35
2022-10-13T17:20:20.965Z,90.84
2022-10-13T17:22:47.437Z,91.29
2022-10-13T17:25:13.951Z,91.84
2022-10-13T17:27:40.499Z,92.31
2022-10-13T17:30:07.431Z,91.76
2022-10-13T17:32:38.654Z,93.22
2022-10-13T17:35:06.228Z,93.42
2022-10-13T17:37:32.736Z,93.86
2022-10-13T17:39:59.154Z,95.08
2022-10-13T17:42:25.625Z,96.53
2022-10-13T17:44:52.060Z,96.98
2022-10-13T17:47:18.823Z,96.89
2022-10-13T17:52:11.997Z,97.45
2022-10-13T17:54:38.413Z,95.52
2022-10-13T17:57:05.559Z,95.81
2022-10-13T17:59:32.167Z,96.27
2022-10-13T18:01:58.685Z,96.85
2022-10-13T18:04:25.165Z,97.63
2022-10-13T18:06:51.576Z,97.66
2022-10-13T18:09:20.688Z,98.38
2022-10-13T18:11:51.579Z,98.39
2022-10-13T18:14:22.947Z,98.62
2022-10-13T18:16:50.823Z,98.96
2022-10-13T18:19:17.613Z,98.78
2022-10-13T18:21:44.218Z,99.33
2022-10-13T18:24:11.765Z,99.60
2022-10-13T18:26:38.609Z,100.00
2022-10-13T18:29:06.903Z,100.00
2022-10-13T18:31:35.518Z,100.00
2022-10-13T18:34:04.856Z,100.00
2022-10-13T18:36:35.280Z,100.00
2022-10-13T18:39:10.812Z,100.00
2022-10-13T18:41:37.942Z,100.00
2022-10-13T18:44:05.108Z,100.00
2022-10-13T18:46:35.656Z,100.00
2022-10-13T18:49:03.151Z,100.00
2022-10-13T18:51:35.593Z,100.00
2022-10-13T18:54:02.815Z,100.00
2022-10-13T18:56:30.780Z,100.00
2022-10-13T18:58:59.977Z,99.64
2022-10-13T19:01:29.594Z,99.69
2022-10-13T19:03:56.927Z,99.39
2022-10-13T19:06:27.017Z,98.95
2022-10-13T19:08:58.634Z,99.14
2022-10-13T19:11:25.394Z,100.00
2022-10-13T19:13:52.411Z,99.23
2022-10-13T19:16:21.541Z,98.63
2022-10-13T19:18:49.445Z,97.49
2022-10-13T19:21:16.698Z,97.38
2022-10-13T19:23:43.471Z,96.98
2022-10-13T19:26:16.141Z,97.57
2022-10-13T19:28:43.750Z,97.84
2022-10-13T19:31:15.942Z,98.47
2022-10-13T19:33:44.722Z,97.48
2022-10-13T19:36:19.355Z,97.98
2022-10-13T19:38:45.959Z,99.90
2022-10-13T19:41:12.416Z,99.17
2022-10-13T19:43:38.900Z,98.38
2022-10-13T19:46:07.594Z,98.12
2022-10-13T19:48:34.485Z,98.20
2022-10-13T19:51:03.869Z,98.77
2022-10-13T19:53:30.358Z,98.49
2022-10-13T19:55:56.873Z,98.30
2022-10-13T19:58:23.787Z,99.03
2022-10-13T20:00:50.311Z,98.67
2022-10-13T20:03:16.832Z,99.27
2022-10-13T20:05:43.877Z,98.86
2022-10-13T20:08:11.892Z,99.60
2022-10-13T20:10:40.272Z,100.00
2022-10-13T20:13:07.290Z,100.00
2022-10-13T20:15:33.898Z,100.00
2022-10-13T20:18:00.597Z,99.87
2022-10-13T20:20:27.485Z,99.13
2022-10-13T20:22:53.971Z,99.30
2022-10-13T20:25:20.512Z,100.00
2022-10-13T20:27:47.479Z,99.60
2022-10-13T20:30:14.438Z,100.00
2022-10-13T20:32:41.168Z,100.00
2022-10-13T20:35:08.100Z,100.00
2022-10-13T20:37:34.862Z,100.00
2022-10-13T20:40:01.672Z,100.00
2022-10-13T20:42:28.345Z,100.00
2022-10-13T20:44:55.084Z,100.00
2022-10-13T20:47:21.814Z,100.00
2022-10-13T20:49:48.555Z,100.00
2022-10-13T20:52:15.091Z,100.00
2022-10-13T20:54:41.610Z,100.00
2022-10-13T20:57:08.120Z,100.00
2022-10-13T20:59:34.606Z,100.00
2022-10-13T21:02:01.067Z,100.00
2022-10-13T21:04:27.675Z,100.00
2022-10-13T21:06:54.178Z,100.00
2022-10-13T21:09:20.912Z,100.00
2022-10-13T21:11:47.379Z,100.00
2022-10-13T21:14:13.861Z,100.00
2022-10-13T21:16:40.486Z,100.00
2022-10-13T21:19:07.397Z,100.00
2022-10-13T21:21:34.778Z,100.00
2022-10-13T21:24:05.094Z,100.00
2022-10-13T21:26:32.740Z,100.00
2022-10-13T21:29:00.737Z,100.00
2022-10-13T21:31:31.295Z,100.00
2022-10-13T21:33:57.999Z,100.00
2022-10-13T21:36:30.140Z,100.00
2022-10-13T21:38:59.791Z,100.00
2022-10-13T21:41:27.311Z,100.00
2022-10-13T21:43:54.609Z,100.00
2022-10-13T21:46:28.111Z,100.00
2022-10-13T21:48:59.447Z,100.00
2022-10-13T21:51:29.605Z,100.00
2022-10-13T21:53:58.833Z,100.00
2022-10-13T21:56:26.417Z,100.00
2022-10-13T21:58:53.880Z,100.00
2022-10-13T22:01:20.935Z,100.00
2022-10-13T22:03:48.557Z,100.00
2022-10-13T22:06:18.979Z,100.00
2022-10-13T22:08:48.922Z,100.00
2022-10-13T22:11:16.391Z,100.00
2022-10-13T22:13:43.127Z,100.00
2022-10-13T22:16:18.692Z,100.00
2022-10-13T22:18:46.390Z,100.00
2022-10-13T22:21:19.100Z,100.00
2022-10-13T22:23:46.291Z,100.00
2022-10-13T22:26:14.813Z,100.00
2022-10-13T22:28:41.586Z,100.00
2022-10-13T22:31:12.799Z,100.00
2022-10-13T22:33:41.141Z,100.00
2022-10-13T22:36:17.501Z,100.00
2022-10-13T22:38:45.277Z,100.00
2022-10-13T22:41:14.643Z,100.00
2022-10-13T22:43:44.136Z,100.00
2022-10-13T22:46:12.326Z,100.00
2022-10-13T22:48:40.909Z,100.00
2022-10-13T22:51:08.135Z,100.00
2022-10-13T22:53:34.733Z,100.00
2022-10-13T22:56:05.410Z,100.00
2022-10-13T22:58:31.941Z,100.00
2022-10-13T23:01:04.703Z,100.00
2022-10-13T23:03:31.261Z,100.00
2022-10-13T23:05:57.750Z,100.00
2022-10-13T23:08:24.282Z,100.00
2022-10-13T23:10:50.800Z,100.00
2022-10-13T23:13:17.410Z,100.00
2022-10-13T23:15:43.844Z,100.00
2022-10-13T23:18:10.320Z,100.00
2022-10-13T23:20:43.385Z,100.00
2022-10-13T23:23:10.078Z,100.00
2022-10-13T23:25:37.514Z,100.00
2022-10-13T23:28:04.690Z,100.00
2022-10-13T23:30:31.178Z,100.00
2022-10-13T23:32:57.655Z,100.00
2022-10-13T23:35:24.226Z,100.00
2022-10-13T23:37:52.626Z,100.00
2022-10-13T23:40:19.260Z,100.00
2022-10-13T23:42:45.836Z,100.00
2022-10-13T23:45:12.322Z,100.00
2022-10-13T23:47:38.863Z,100.00
2022-10-13T23:50:05.859Z,100.00
2022-10-13T23:52:32.331Z,100.00
2022-10-13T23:54:58.823Z,100.00
2022-10-13T23:57:25.349Z,100.00
2022-10-13T23:59:51.930Z,100.00
